Time;durP1;ratioP1;P1;durP2;ratioP2;P2;SDS_P1;SDS_P2;PMS_P1;PMS_P2;Temp;Humidity;BMP_temperature;BMP_pressure;BME280_temperature;BME280_humidity;BME280_pressure;Samples;Min_cycle;Max_cycle;Signal;HPM_P1;HPM_P2
2021/12/03 00:00:59;;;;;;;3.88;1.60;;;-1.40;99.90;;;;;;5055809;28;20055;-89
2021/12/03 00:03:26;;;;;;;5.47;2.20;;;-1.50;99.90;;;;;;5056093;28;20075;-89
2021/12/03 00:05:56;;;;;;;3.80;1.33;;;-1.60;99.90;;;;;;5073577;28;20044;-89
2021/12/03 00:08:24;;;;;;;3.72;1.80;;;-1.60;99.90;;;;;;5055851;28;20511;-88
2021/12/03 00:10:55;;;;;;;2.42;2.22;;;-1.70;99.90;;;;;;5055447;28;20110;-88
2021/12/03 00:13:23;;;;;;;4.85;2.35;;;-1.70;99.90;;;;;;5055950;28;20412;-89
2021/12/03 00:15:52;;;;;;;4.10;1.95;;;-1.80;99.90;;;;;;5055800;28;20079;-89
2021/12/03 00:18:19;;;;;;;6.88;2.53;;;-1.80;99.90;;;;;;5055657;28;20044;-89
2021/12/03 00:20:47;;;;;;;4.40;2.45;;;-1.80;99.90;;;;;;5055560;28;20056;-89
2021/12/03 00:23:15;;;;;;;6.57;2.85;;;-1.80;99.90;;;;;;5055542;28;20050;-90
2021/12/03 00:25:43;;;;;;;3.17;2.42;;;-1.80;99.90;;;;;;5073182;28;20427;-89
2021/12/03 00:28:10;;;;;;;7.18;2.55;;;-1.80;99.90;;;;;;5055729;28;20053;-90
2021/12/03 00:30:37;;;;;;;5.28;2.53;;;-1.70;99.90;;;;;;5073309;28;20072;-90
2021/12/03 00:33:05;;;;;;;4.10;2.30;;;-1.80;99.90;;;;;;5057170;28;20408;-90
2021/12/03 00:35:33;;;;;;;3.55;2.63;;;-1.80;99.90;;;;;;5077889;28;20048;-90
2021/12/03 00:38:02;;;;;;;2.20;2.00;;;-1.80;99.90;;;;;;5059812;28;20124;-90
2021/12/03 00:40:34;;;;;;;3.75;1.88;;;-1.90;99.90;;;;;;5059937;28;20052;-90
2021/12/03 00:43:02;;;;;;;4.05;2.20;;;-2.00;99.90;;;;;;5059674;28;20059;-90
2021/12/03 00:45:31;;;;;;;2.70;2.20;;;-2.00;99.90;;;;;;5059725;28;20127;-90
2021/12/03 00:48:00;;;;;;;4.47;2.00;;;-2.10;99.90;;;;;;5059781;28;20132;-90
2021/12/03 00:50:29;;;;;;;5.75;1.95;;;-2.30;99.90;;;;;;5076902;28;20048;-88
2021/12/03 00:52:56;;;;;;;4.28;1.90;;;-2.30;99.90;;;;;;5061653;28;20066;-89
2021/12/03 00:55:25;;;;;;;1.90;1.80;;;-2.30;99.90;;;;;;5077155;28;20055;-90
2021/12/03 00:57:53;;;;;;;5.07;2.15;;;-2.30;99.90;;;;;;5059394;28;20056;-90
2021/12/03 01:00:23;;;;;;;3.55;2.03;;;-2.30;99.90;;;;;;5059463;28;20077;-90
2021/12/03 01:02:52;;;;;;;3.17;1.52;;;-2.40;99.90;;;;;;5059362;28;20515;-90
2021/12/03 01:05:20;;;;;;;7.47;2.22;;;-2.40;99.90;;;;;;5077134;28;20055;-90
2021/12/03 01:07:47;;;;;;;4.05;1.70;;;-2.60;99.90;;;;;;5059421;28;20162;-90
2021/12/03 01:10:15;;;;;;;1.90;1.80;;;-2.70;99.90;;;;;;5059281;28;20049;-90
2021/12/03 01:12:42;;;;;;;3.72;1.55;;;-2.80;99.90;;;;;;5059164;28;20052;-90
2021/12/03 01:15:14;;;;;;;2.60;2.00;;;-2.80;99.90;;;;;;5059106;28;20573;-89
2021/12/03 01:17:41;;;;;;;2.38;2.28;;;-2.80;99.90;;;;;;5076855;28;20143;-90
2021/12/03 01:20:10;;;;;;;2.58;2.03;;;-2.80;99.90;;;;;;5075342;28;20113;-90
2021/12/03 01:22:37;;;;;;;3.70;2.17;;;-2.80;99.90;;;;;;5075479;28;20126;-90
2021/12/03 01:25:07;;;;;;;6.32;2.13;;;-2.80;99.90;;;;;;5059097;28;20044;-90
2021/12/03 01:27:34;;;;;;;8.38;2.22;;;-2.80;99.90;;;;;;5058845;28;20049;-90
2021/12/03 01:30:01;;;;;;;7.85;2.80;;;-2.80;99.90;;;;;;5058809;28;20516;-90
2021/12/03 01:32:28;;;;;;;6.03;3.20;;;-2.80;99.90;;;;;;5058644;28;20052;-90
2021/12/03 01:34:55;;;;;;;3.78;2.60;;;-2.80;99.90;;;;;;5076251;28;20139;-90
2021/12/03 01:37:22;;;;;;;4.50;3.50;;;-2.80;99.90;;;;;;5058983;28;20415;-90
2021/12/03 01:39:49;;;;;;;6.00;3.50;;;-2.80;99.90;;;;;;5076112;28;20048;-90
2021/12/03 01:42:15;;;;;;;11.60;3.47;;;-2.70;99.90;;;;;;5058740;28;20044;-90
2021/12/03 01:44:42;;;;;;;10.60;3.33;;;-2.70;99.90;;;;;;5058272;28;20412;-90
2021/12/03 01:47:09;;;;;;;6.07;3.45;;;-2.70;99.90;;;;;;5058453;28;20060;-90
2021/12/03 01:49:36;;;;;;;12.07;7.00;;;-2.70;99.90;;;;;;5058502;28;20049;-90
2021/12/03 01:52:03;;;;;;;8.70;3.67;;;-2.70;99.90;;;;;;5058363;28;20056;-90
2021/12/03 01:54:29;;;;;;;7.07;3.95;;;-2.70;99.90;;;;;;5058289;28;20135;-90
2021/12/03 01:56:56;;;;;;;7.75;4.35;;;-2.70;99.90;;;;;;5057729;28;20127;-90
2021/12/03 01:59:23;;;;;;;7.57;3.58;;;-2.70;99.90;;;;;;5058030;28;20514;-90
2021/12/03 02:01:50;;;;;;;6.78;3.85;;;-2.80;99.90;;;;;;5058334;28;20052;-90
2021/12/03 02:04:17;;;;;;;5.45;3.38;;;-2.90;99.90;;;;;;5058347;28;20056;-91
2021/12/03 02:06:44;;;;;;;4.15;3.28;;;-2.90;99.90;;;;;;5058216;28;20055;-91
2021/12/03 02:09:10;;;;;;;4.65;3.95;;;-2.90;99.90;;;;;;5058304;28;20119;-90
2021/12/03 02:11:37;;;;;;;3.53;2.63;;;-3.00;99.90;;;;;;5058177;28;20131;-91
2021/12/03 02:14:05;;;;;;;5.50;3.08;;;-3.00;99.90;;;;;;5058067;28;20052;-90
2021/12/03 02:16:32;;;;;;;4.45;3.10;;;-3.00;99.90;;;;;;5058306;28;20489;-90
2021/12/03 02:18:59;;;;;;;3.92;2.55;;;-3.00;99.90;;;;;;5057689;28;20348;-91
2021/12/03 02:21:26;;;;;;;6.25;2.72;;;-3.10;99.90;;;;;;5057880;28;20058;-91
2021/12/03 02:23:53;;;;;;;4.03;2.53;;;-3.40;99.90;;;;;;5057979;28;20052;-90
2021/12/03 02:26:20;;;;;;;3.83;3.00;;;-3.30;99.90;;;;;;5057730;28;20493;-90
2021/12/03 02:28:49;;;;;;;4.25;3.10;;;-3.40;99.90;;;;;;5057676;28;20048;-90
2021/12/03 02:31:18;;;;;;;5.07;3.13;;;-3.40;99.90;;;;;;5057940;28;20048;-91
2021/12/03 02:33:46;;;;;;;3.40;2.67;;;-3.50;99.90;;;;;;5054370;28;20080;-91
2021/12/03 02:36:13;;;;;;;4.82;3.30;;;-3.50;99.90;;;;;;5054392;28;20045;-91
2021/12/03 02:38:40;;;;;;;4.60;3.03;;;-3.60;99.90;;;;;;5057167;28;20063;-91
2021/12/03 02:41:07;;;;;;;6.75;3.83;;;-3.60;99.90;;;;;;5057443;28;20132;-91
2021/12/03 02:43:35;;;;;;;8.57;5.32;;;-3.60;99.90;;;;;;5057633;28;20048;-90
2021/12/03 02:46:01;;;;;;;8.68;5.53;;;-3.60;99.90;;;;;;5057638;28;20140;-91
2021/12/03 02:48:31;;;;;;;4.78;3.92;;;-3.50;99.90;;;;;;5057560;28;20040;-90
2021/12/03 02:50:59;;;;;;;8.75;5.32;;;-3.50;99.90;;;;;;5057262;28;20058;-91
2021/12/03 02:53:26;;;;;;;9.70;4.45;;;-3.60;99.90;;;;;;5057369;28;20071;-91
2021/12/03 02:55:53;;;;;;;10.60;5.10;;;-3.60;99.90;;;;;;5056794;28;20056;-90
2021/12/03 02:58:20;;;;;;;20.95;11.13;;;-3.60;99.90;;;;;;5057347;28;20051;-91
2021/12/03 03:00:50;;;;;;;8.45;4.47;;;-3.60;99.90;;;;;;5056843;28;20055;-91
2021/12/03 03:03:17;;;;;;;8.50;4.97;;;-3.60;99.90;;;;;;5056972;28;20040;-91
2021/12/03 03:05:56;;;;;;;8.35;4.05;;;-3.60;99.90;;;;;;5056924;28;20059;-91
2021/12/03 03:08:24;;;;;;;3.92;3.40;;;-3.60;99.90;;;;;;5057278;28;20074;-91
2021/12/03 03:10:53;;;;;;;4.95;2.92;;;-3.50;99.90;;;;;;5057105;28;20056;-90
2021/12/03 03:13:20;;;;;;;8.05;3.92;;;-3.60;99.90;;;;;;5056999;28;20147;-91
2021/12/03 03:15:47;;;;;;;5.25;3.40;;;-3.60;99.90;;;;;;5057062;28;20573;-91
2021/12/03 03:18:20;;;;;;;5.90;3.63;;;-3.60;99.90;;;;;;5056745;28;20075;-91
2021/12/03 03:20:48;;;;;;;9.10;2.95;;;-3.70;99.90;;;;;;5056652;28;20048;-91
2021/12/03 03:23:17;;;;;;;4.40;2.72;;;-3.80;99.90;;;;;;5056971;28;20131;-90
2021/12/03 03:25:45;;;;;;;4.40;3.10;;;-3.80;99.90;;;;;;5057095;28;20510;-91
2021/12/03 03:28:13;;;;;;;4.22;2.85;;;-3.90;99.90;;;;;;5057158;28;20116;-91
2021/12/03 03:30:42;;;;;;;2.92;2.65;;;-3.90;99.90;;;;;;5056583;28;20135;-91
2021/12/03 03:33:10;;;;;;;4.72;2.67;;;-4.00;99.90;;;;;;5056780;28;20060;-91
2021/12/03 03:35:37;;;;;;;2.67;2.47;;;-4.10;99.90;;;;;;5056791;28;20119;-91
2021/12/03 03:38:04;;;;;;;5.07;2.33;;;-4.30;99.90;;;;;;5056942;28;20056;-91
2021/12/03 03:40:32;;;;;;;4.35;2.85;;;-4.30;99.90;;;;;;5056477;28;20136;-91
2021/12/03 03:43:02;;;;;;;7.20;3.22;;;-4.40;99.90;;;;;;5056385;28;20040;-91
2021/12/03 03:45:30;;;;;;;6.97;2.67;;;-4.50;99.90;;;;;;5056344;28;20393;-92
2021/12/03 03:47:56;;;;;;;3.63;2.65;;;-4.60;99.90;;;;;;5056384;28;20075;-91
2021/12/03 03:50:24;;;;;;;6.07;2.42;;;-4.50;99.90;;;;;;5056259;28;20480;-91
2021/12/03 03:52:52;;;;;;;5.20;2.83;;;-4.40;99.90;;;;;;5056181;28;20045;-91
2021/12/03 03:55:20;;;;;;;4.40;2.53;;;-4.40;99.90;;;;;;5056359;28;20105;-91
2021/12/03 03:57:48;;;;;;;4.90;2.67;;;-4.40;99.90;;;;;;5056326;28;20489;-91
2021/12/03 04:00:31;;;;;;;5.00;2.00;;;-4.40;99.90;;;;;;5056042;28;20407;-91
2021/12/03 04:02:58;;;;;;;4.72;2.40;;;-4.30;99.90;;;;;;5056111;28;20051;-91
2021/12/03 04:05:26;;;;;;;3.70;1.90;;;-4.30;99.90;;;;;;5056288;28;20048;-91
2021/12/03 04:07:53;;;;;;;3.33;1.77;;;-4.40;99.90;;;;;;5055272;28;20540;-91
2021/12/03 04:10:20;;;;;;;2.70;2.10;;;-4.50;99.90;;;;;;5056123;28;20056;-91
2021/12/03 04:12:47;;;;;;;2.00;1.73;;;-4.60;99.90;;;;;;5055808;28;20140;-91
2021/12/03 04:15:14;;;;;;;3.70;3.15;;;-4.60;99.90;;;;;;5055766;28;20567;-91
2021/12/03 04:17:42;;;;;;;5.15;1.85;;;-4.70;99.90;;;;;;5056013;28;20055;-91
2021/12/03 04:20:12;;;;;;;3.67;1.95;;;-4.70;99.90;;;;;;5055944;28;20106;-90
2021/12/03 04:22:39;;;;;;;1.70;1.60;;;-4.80;99.90;;;;;;5056042;28;20083;-91
2021/12/03 04:25:09;;;;;;;1.83;1.67;;;-4.90;99.90;;;;;;5055780;28;20055;-91
2021/12/03 04:27:36;;;;;;;2.28;1.70;;;-4.90;99.90;;;;;;5058903;28;20054;-91
2021/12/03 04:30:07;;;;;;;2.47;1.80;;;-4.90;99.90;;;;;;5058797;28;20047;-91
2021/12/03 04:32:34;;;;;;;3.13;1.70;;;-4.90;99.90;;;;;;5056090;28;20052;-91
2021/12/03 04:35:00;;;;;;;5.22;1.73;;;-5.00;99.90;;;;;;5055494;28;20055;-91
2021/12/03 04:37:27;;;;;;;1.52;1.42;;;-5.10;99.90;;;;;;5055634;28;20049;-91
2021/12/03 04:39:54;;;;;;;5.03;1.95;;;-5.10;99.90;;;;;;5055563;28;20076;-91
2021/12/03 04:42:21;;;;;;;1.45;1.35;;;-5.10;99.90;;;;;;5055806;28;20507;-91
2021/12/03 04:44:48;;;;;;;2.33;1.42;;;-5.20;99.90;;;;;;5055660;28;20053;-91
2021/12/03 04:47:15;;;;;;;4.13;2.10;;;-5.10;99.90;;;;;;5056287;28;20100;-91
2021/12/03 04:49:41;;;;;;;5.35;1.85;;;-5.30;99.90;;;;;;5055619;28;20400;-90
2021/12/03 04:52:08;;;;;;;2.47;2.33;;;-5.30;99.90;;;;;;5055536;28;20059;-91
2021/12/03 04:54:35;;;;;;;2.90;2.70;;;-5.30;99.90;;;;;;5055335;28;20052;-91
2021/12/03 04:57:02;;;;;;;5.47;2.10;;;-5.30;99.90;;;;;;5055555;28;20050;-91
2021/12/03 04:59:29;;;;;;;1.58;1.58;;;-5.30;99.90;;;;;;5055434;28;20060;-90
2021/12/03 05:01:57;;;;;;;4.90;1.77;;;-5.20;99.90;;;;;;5055364;28;20183;-91
2021/12/03 05:04:24;;;;;;;2.17;1.92;;;-5.20;99.90;;;;;;5055460;28;20447;-91
2021/12/03 05:07:04;;;;;;;4.30;1.60;;;-5.20;99.90;;;;;;5055492;28;20059;-91
2021/12/03 05:09:31;;;;;;;4.10;2.22;;;-5.20;99.90;;;;;;5055574;28;20049;-90
2021/12/03 05:11:59;;;;;;;2.85;2.03;;;-5.20;99.90;;;;;;5055447;28;20052;-92
2021/12/03 05:14:27;;;;;;;2.15;1.70;;;-5.20;99.90;;;;;;5055734;28;20063;-91
2021/12/03 05:16:54;;;;;;;2.15;1.50;;;-5.30;99.90;;;;;;5055425;28;20063;-90
2021/12/03 05:19:21;;;;;;;2.50;1.73;;;-5.20;99.90;;;;;;5057079;28;20139;-90
2021/12/03 05:21:48;;;;;;;3.20;2.17;;;-5.30;99.90;;;;;;5059107;28;20048;-91
2021/12/03 05:24:16;;;;;;;2.85;1.60;;;-5.40;99.90;;;;;;5059457;28;20045;-91
2021/12/03 05:26:44;;;;;;;2.38;1.60;;;-5.40;99.90;;;;;;5059357;28;20394;-91
2021/12/03 05:29:12;;;;;;;1.77;1.63;;;-5.40;99.90;;;;;;5059135;28;20056;-91
2021/12/03 05:31:39;;;;;;;3.42;1.38;;;-5.50;99.90;;;;;;5058971;28;20484;-90
2021/12/03 05:34:25;;;;;;;1.48;1.38;;;-5.50;99.90;;;;;;5061958;28;20055;-91
2021/12/03 05:36:52;;;;;;;2.10;1.63;;;-5.50;99.90;;;;;;5059064;28;20055;-91
2021/12/03 05:39:19;;;;;;;3.72;1.67;;;-5.60;99.90;;;;;;5058860;28;20040;-90
2021/12/03 05:41:46;;;;;;;1.92;1.60;;;-5.60;99.90;;;;;;5058621;28;20131;-91
2021/12/03 05:44:13;;;;;;;1.70;1.50;;;-5.70;99.90;;;;;;5058801;28;20045;-91
2021/12/03 05:46:40;;;;;;;3.58;1.83;;;-5.70;99.90;;;;;;5058498;28;20056;-90
2021/12/03 05:49:07;;;;;;;3.85;1.85;;;-5.70;99.90;;;;;;5058716;28;20053;-90
2021/12/03 05:51:35;;;;;;;2.95;1.85;;;-5.70;99.90;;;;;;5058940;28;20048;-90
2021/12/03 05:54:02;;;;;;;3.25;1.63;;;-5.70;99.90;;;;;;5058650;28;20045;-90
2021/12/03 05:56:29;;;;;;;14.80;6.28;;;-5.70;99.90;;;;;;5058846;28;20135;-90
2021/12/03 05:58:59;;;;;;;17.45;5.60;;;-5.80;99.90;;;;;;5059798;28;20048;-91
2021/12/03 06:01:26;;;;;;;4.05;2.80;;;-5.70;99.90;;;;;;5067559;28;20109;-91
2021/12/03 06:03:53;;;;;;;7.22;3.50;;;-5.60;99.90;;;;;;5058454;28;20075;-90
2021/12/03 06:06:21;;;;;;;7.72;4.05;;;-5.70;99.90;;;;;;5058753;28;20061;-90
2021/12/03 06:08:48;;;;;;;8.27;4.97;;;-5.70;99.90;;;;;;5058221;28;20075;-90
2021/12/03 06:11:15;;;;;;;6.53;5.20;;;-5.80;99.90;;;;;;5058137;28;20465;-89
2021/12/03 06:13:42;;;;;;;5.03;3.65;;;-5.80;99.90;;;;;;5058005;28;20051;-90
2021/12/03 06:16:11;;;;;;;5.45;2.70;;;-5.80;99.90;;;;;;5058275;28;20059;-90
2021/12/03 06:18:38;;;;;;;2.20;2.00;;;-5.90;99.90;;;;;;5057750;28;20061;-90
2021/12/03 06:21:08;;;;;;;5.40;4.10;;;-6.00;99.90;;;;;;5057609;28;20132;-90
2021/12/03 06:23:36;;;;;;;5.15;2.75;;;-6.00;99.90;;;;;;5058119;28;20048;-90
2021/12/03 06:26:04;;;;;;;4.53;2.10;;;-6.00;99.90;;;;;;5057784;28;20147;-90
2021/12/03 06:28:32;;;;;;;3.95;2.20;;;-6.10;99.90;;;;;;5057892;28;20557;-90
2021/12/03 06:30:59;;;;;;;2.30;1.80;;;-6.10;99.90;;;;;;5056708;28;20139;-90
2021/12/03 06:33:26;;;;;;;3.63;2.20;;;-6.10;99.90;;;;;;5057741;28;20055;-90
2021/12/03 06:35:53;;;;;;;12.90;6.63;;;-6.10;99.90;;;;;;5057748;28;20238;-90
2021/12/03 06:38:21;;;;;;;4.47;3.83;;;-6.10;99.90;;;;;;5057514;28;20072;-89
2021/12/03 06:40:50;;;;;;;8.48;4.53;;;-6.10;99.90;;;;;;5057382;28;20049;-90
2021/12/03 06:43:18;;;;;;;7.10;2.20;;;-6.10;99.90;;;;;;5057606;28;20516;-90
2021/12/03 06:45:46;;;;;;;2.15;1.85;;;-6.10;99.90;;;;;;5059020;28;20040;-90
2021/12/03 06:48:13;;;;;;;6.57;4.53;;;-6.10;99.90;;;;;;5067148;28;20495;-90
2021/12/03 06:50:40;;;;;;;9.60;6.80;;;-6.20;99.90;;;;;;5065931;28;20120;-90
2021/12/03 06:53:10;;;;;;;11.73;5.78;;;-6.10;99.90;;;;;;5057131;28;20475;-90
2021/12/03 06:55:47;;;;;;;6.28;4.63;;;-6.20;99.90;;;;;;5057275;28;20075;-90
2021/12/03 06:58:15;;;;;;;16.65;7.55;;;-6.20;99.90;;;;;;5057355;28;20063;-90
2021/12/03 07:00:43;;;;;;;9.85;4.90;;;-6.10;99.90;;;;;;5056961;28;20484;-90
2021/12/03 07:03:10;;;;;;;6.30;4.20;;;-6.00;99.90;;;;;;5056998;28;20405;-90
2021/12/03 07:05:37;;;;;;;3.00;2.70;;;-6.00;99.90;;;;;;5057143;28;20151;-90
2021/12/03 07:08:04;;;;;;;7.75;2.83;;;-5.90;99.90;;;;;;5056950;28;20053;-90
2021/12/03 07:10:31;;;;;;;5.85;3.13;;;-5.80;99.90;;;;;;5057321;28;20044;-90
2021/12/03 07:12:58;;;;;;;6.20;3.00;;;-5.70;99.90;;;;;;5050876;28;20135;-90
2021/12/03 07:15:25;;;;;;;3.35;2.40;;;-5.70;99.90;;;;;;5051222;28;20143;-90
2021/12/03 07:17:52;;;;;;;6.38;2.75;;;-5.60;99.90;;;;;;5056804;28;20087;-90
2021/12/03 07:20:22;;;;;;;4.18;2.85;;;-5.60;99.90;;;;;;5056472;28;20443;-90
2021/12/03 07:22:49;;;;;;;3.20;2.30;;;-5.50;99.90;;;;;;5056244;28;20070;-90
2021/12/03 07:25:16;;;;;;;4.88;2.60;;;-5.40;99.90;;;;;;5056692;28;20045;-89
2021/12/03 07:27:43;;;;;;;7.15;4.43;;;-5.40;99.90;;;;;;5056669;28;20065;-90
2021/12/03 07:30:12;;;;;;;37.80;20.70;;;-5.50;99.90;;;;;;5056503;28;20083;-90
2021/12/03 07:32:39;;;;;;;14.77;7.40;;;-5.60;99.90;;;;;;5056247;28;20131;-90
2021/12/03 07:35:07;;;;;;;9.80;5.38;;;-5.50;99.90;;;;;;5056771;28;20044;-90
2021/12/03 07:37:35;;;;;;;8.80;5.15;;;-5.50;99.90;;;;;;5056611;28;20051;-90
2021/12/03 07:40:06;;;;;;;6.00;4.20;;;-5.50;99.90;;;;;;5057060;28;20056;-90
2021/12/03 07:42:35;;;;;;;8.45;3.85;;;-5.50;99.90;;;;;;5056019;28;20048;-90
2021/12/03 07:45:05;;;;;;;8.40;4.18;;;-5.60;99.90;;;;;;5056019;28;20044;-90
2021/12/03 07:47:32;;;;;;;48.50;21.73;;;-5.50;99.90;;;;;;5056479;28;20080;-91
2021/12/03 07:49:59;;;;;;;27.65;11.98;;;-5.50;99.90;;;;;;5056322;28;20132;-90
2021/12/03 07:52:26;;;;;;;106.70;43.65;;;-5.50;99.90;;;;;;5056543;28;20139;-90
2021/12/03 07:54:52;;;;;;;42.92;18.75;;;-5.40;99.90;;;;;;5055973;28;20052;-90
2021/12/03 07:57:19;;;;;;;17.45;9.63;;;-5.40;99.90;;;;;;5056517;28;20106;-90
2021/12/03 07:59:46;;;;;;;21.60;10.38;;;-5.30;99.90;;;;;;5055970;28;20166;-90
2021/12/03 08:02:13;;;;;;;15.63;8.27;;;-5.40;99.90;;;;;;5056473;28;20086;-90
2021/12/03 08:04:40;;;;;;;15.40;8.13;;;-5.30;99.90;;;;;;5056504;28;20047;-90
2021/12/03 08:07:08;;;;;;;20.60;10.68;;;-5.30;99.90;;;;;;5056934;28;20135;-90
2021/12/03 08:09:35;;;;;;;21.45;11.55;;;-5.30;99.90;;;;;;5056714;28;20139;-90
2021/12/03 08:12:03;;;;;;;18.17;8.48;;;-5.30;99.90;;;;;;5056617;28;20492;-90
2021/12/03 08:14:29;;;;;;;22.92;11.35;;;-5.30;99.90;;;;;;5056433;28;20068;-90
2021/12/03 08:16:56;;;;;;;50.20;22.50;;;-5.30;99.90;;;;;;5055987;28;20135;-90
2021/12/03 08:19:23;;;;;;;57.22;23.73;;;-5.30;99.90;;;;;;5055807;28;20140;-89
2021/12/03 08:21:49;;;;;;;53.63;23.23;;;-5.30;99.90;;;;;;5056067;28;20048;-90
2021/12/03 08:24:16;;;;;;;60.72;26.67;;;-5.30;99.90;;;;;;5049362;28;20049;-90
2021/12/03 08:26:43;;;;;;;85.88;42.47;;;-5.30;99.90;;;;;;5063987;28;20470;-90
2021/12/03 08:29:10;;;;;;;52.83;23.85;;;-5.30;99.90;;;;;;5040119;28;20049;-90
2021/12/03 08:31:39;;;;;;;133.15;46.47;;;-5.30;99.90;;;;;;5035844;28;20548;-90
2021/12/03 08:34:06;;;;;;;77.60;32.88;;;-5.20;99.90;;;;;;5036219;28;20141;-90
2021/12/03 08:36:33;;;;;;;119.15;42.03;;;-5.20;99.90;;;;;;5035872;28;20045;-90
2021/12/03 08:39:00;;;;;;;129.75;56.33;;;-5.20;99.90;;;;;;5035563;28;20053;-90
2021/12/03 08:41:27;;;;;;;189.10;66.68;;;-5.20;99.90;;;;;;5035735;28;20132;-91
2021/12/03 08:43:53;;;;;;;42.47;21.45;;;-5.20;99.90;;;;;;5035770;28;20063;-90
2021/12/03 08:46:35;;;;;;;159.60;58.40;;;-5.10;99.90;;;;;;5035970;28;20128;-89
2021/12/03 08:49:15;;;;;;;81.57;34.30;;;-5.10;99.90;;;;;;5036003;28;20136;-90
2021/12/03 08:56:57;;;;;;;28.60;17.55;;;-5.00;99.90;;;;;;5056883;28;20144;-90
2021/12/03 08:59:24;;;;;;;24.20;11.25;;;-4.90;99.90;;;;;;5039858;28;20051;-90
2021/12/03 09:01:51;;;;;;;22.33;10.68;;;-4.80;99.90;;;;;;5039430;28;20048;-91
2021/12/03 09:04:18;;;;;;;19.85;11.10;;;-4.70;99.90;;;;;;5040591;28;20059;-90
2021/12/03 09:06:45;;;;;;;25.27;11.25;;;-4.40;99.90;;;;;;5041667;28;20136;-90
2021/12/03 09:09:12;;;;;;;21.02;9.52;;;-4.10;99.90;;;;;;5044958;28;20160;-90
2021/12/03 09:11:39;;;;;;;20.50;11.50;;;-3.70;99.90;;;;;;5039609;28;20048;-89
2021/12/03 09:14:15;;;;;;;17.73;9.95;;;-3.20;99.90;;;;;;5039127;28;20147;-90
2021/12/03 09:16:44;;;;;;;13.93;9.30;;;-2.90;99.90;;;;;;5039016;28;20076;-90
2021/12/03 09:19:19;;;;;;;15.10;9.55;;;-2.60;99.90;;;;;;5038794;28;20515;-90
2021/12/03 09:21:46;;;;;;;10.00;7.95;;;-2.30;99.90;;;;;;5039071;28;20412;-91
2021/12/03 09:24:16;;;;;;;13.15;8.13;;;-2.20;99.90;;;;;;5038998;28;20049;-90
2021/12/03 09:26:43;;;;;;;10.57;7.22;;;-2.00;99.90;;;;;;5043815;28;20131;-89
2021/12/03 09:29:13;;;;;;;10.73;7.43;;;-1.90;99.90;;;;;;5038900;28;20454;-90
2021/12/03 09:31:47;;;;;;;10.60;7.57;;;-1.70;99.90;;;;;;5038949;28;20135;-90
2021/12/03 09:34:16;;;;;;;10.48;7.78;;;-1.70;99.90;;;;;;5038877;28;20049;-90
2021/12/03 09:36:44;;;;;;;10.77;6.90;;;-1.60;99.90;;;;;;5037542;28;20056;-90
2021/12/03 09:39:19;;;;;;;7.95;6.45;;;-1.50;99.90;;;;;;5039114;28;20132;-90
2021/12/03 09:41:47;;;;;;;13.52;7.20;;;-1.30;99.90;;;;;;5027635;28;20049;-90
2021/12/03 09:44:14;;;;;;;6.30;5.53;;;-1.20;99.90;;;;;;5035446;28;20064;-89
2021/12/03 09:46:41;;;;;;;6.40;5.55;;;-1.20;99.90;;;;;;5038554;28;20065;-90
2021/12/03 09:51:53;;;;;;;9.50;5.45;;;-1.00;99.90;;;;;;5055939;28;20049;-90
2021/12/03 09:57:09;;;;;;;7.50;5.00;;;-0.90;99.90;;;;;;5056242;28;20493;-90
2021/12/03 10:02:51;;;;;;;7.43;5.72;;;-0.90;99.90;;;;;;5053841;28;20059;-91
2021/12/03 10:06:19;;;;;;;8.07;5.40;;;-0.80;99.90;;;;;;5037016;28;20045;-91
2021/12/03 10:13:37;;;;;;;8.40;5.35;;;-0.60;99.90;;;;;;5055690;28;20041;-90
2021/12/03 10:16:31;;;;;;;8.30;5.63;;;-0.50;99.90;;;;;;5038206;28;20051;-91
2021/12/03 10:19:17;;;;;;;5.68;4.68;;;-0.50;99.90;;;;;;5037830;28;20049;-92
2021/12/03 10:22:06;;;;;;;7.35;5.45;;;-0.40;99.90;;;;;;5037824;28;20045;-91
2021/12/03 10:27:47;;;;;;;4.35;4.00;;;-0.50;99.90;;;;;;5055456;28;20045;-92
2021/12/03 10:36:34;;;;;;;4.55;4.15;;;-0.30;99.90;;;;;;5011268;28;20131;-92
2021/12/03 10:47:56;;;;;;;8.32;5.53;;;0.00;99.90;;;;;;5055063;28;20049;-90
2021/12/03 10:58:32;;;;;;;6.97;5.22;;;0.20;99.90;;;;;;5054951;28;20079;-91
2021/12/03 11:04:25;;;;;;;6.00;4.85;;;0.20;99.90;;;;;;5054400;28;20119;-90
2021/12/03 11:06:46;;;;;;;8.20;4.95;;;0.20;99.90;;;;;;5054509;28;20049;-91
2021/12/03 11:17:34;;;;;;;6.82;5.15;;;0.30;99.90;;;;;;5053947;28;20191;-92
2021/12/03 11:20:52;;;;;;;6.05;4.70;;;0.20;99.90;;;;;;5053385;28;20168;-90
2021/12/03 12:08:28;;;;;;;9.27;5.43;;;1.10;99.90;;;;;;5053618;28;20462;-89
2021/12/03 12:19:38;;;;;;;5.00;4.28;;;1.20;99.90;;;;;;5053056;28;20049;-91
2021/12/03 12:25:26;;;;;;;7.22;4.97;;;1.20;99.90;;;;;;4972684;28;20054;-90
2021/12/03 12:57:47;;;;;;;5.85;5.25;;;1.30;99.90;;;;;;5053041;28;20156;-91
2021/12/03 13:13:33;;;;;;;7.22;6.20;;;1.40;99.90;;;;;;5052955;28;20063;-91
2021/12/03 13:40:29;;;;;;;8.20;6.25;;;1.20;99.90;;;;;;4972060;28;20146;-90
2021/12/03 14:07:59;;;;;;;5.25;4.00;;;1.20;99.90;;;;;;5076311;28;20055;-91
2021/12/03 14:14:20;;;;;;;4.80;4.07;;;1.20;99.90;;;;;;5075958;28;20076;-88
2021/12/03 14:20:32;;;;;;;5.78;3.70;;;1.20;99.90;;;;;;5075262;28;20080;-91
2021/12/03 14:38:17;;;;;;;5.13;3.70;;;1.10;99.90;;;;;;5077641;28;20040;-90
2021/12/03 14:49:12;;;;;;;5.53;3.35;;;0.90;99.90;;;;;;5075494;28;20493;-90
2021/12/03 14:52:07;;;;;;;6.75;3.60;;;0.90;99.90;;;;;;5056976;28;20063;-90
2021/12/03 14:59:57;;;;;;;4.15;3.75;;;0.90;99.90;;;;;;5052698;28;20079;-90
2021/12/03 15:02:52;;;;;;;6.45;3.38;;;0.90;99.90;;;;;;5037358;28;20049;-88
2021/12/03 15:05:36;;;;;;;4.43;3.35;;;0.90;99.90;;;;;;5054179;28;20475;-91
2021/12/03 15:08:05;;;;;;;4.20;3.80;;;0.90;99.90;;;;;;5037345;28;20041;-91
2021/12/03 15:10:43;;;;;;;3.67;3.33;;;0.80;99.90;;;;;;5036496;28;20049;-88
2021/12/03 15:21:58;;;;;;;3.60;2.95;;;0.80;99.90;;;;;;4992587;28;20050;-91
2021/12/03 15:32:11;;;;;;;3.15;2.92;;;0.80;99.90;;;;;;5053156;28;20096;-90
2021/12/03 15:37:41;;;;;;;4.80;3.38;;;0.80;99.90;;;;;;5053096;28;20051;-89
2021/12/03 16:04:30;;;;;;;3.85;2.90;;;0.80;99.90;;;;;;5052789;28;20055;-89
2021/12/03 16:07:18;;;;;;;5.75;3.15;;;0.80;99.90;;;;;;5034954;28;20072;-89
2021/12/03 16:10:04;;;;;;;10.93;3.42;;;0.80;99.90;;;;;;5034987;28;20477;-89
2021/12/03 16:20:47;;;;;;;5.40;2.75;;;0.80;99.90;;;;;;5052954;28;20525;-88
2021/12/03 16:23:22;;;;;;;5.18;2.60;;;0.90;99.90;;;;;;5035167;28;20075;-88
2021/12/03 16:45:19;;;;;;;3.78;3.17;;;1.10;99.90;;;;;;5052371;28;20128;-91
2021/12/03 16:48:14;;;;;;;6.38;3.03;;;1.10;99.90;;;;;;5052246;28;20132;-89
2021/12/03 16:53:15;;;;;;;5.80;3.10;;;1.10;99.90;;;;;;5052391;28;20059;-89
2021/12/03 16:55:53;;;;;;;4.40;3.63;;;1.10;99.90;;;;;;5034026;28;20488;-89
2021/12/03 16:58:20;;;;;;;10.07;3.58;;;1.10;99.90;;;;;;5033452;28;20045;-88
2021/12/03 17:00:55;;;;;;;6.00;3.72;;;1.20;99.90;;;;;;5034214;28;20568;-88
2021/12/03 17:03:26;;;;;;;4.97;3.47;;;1.20;99.90;;;;;;5034602;28;20052;-89
2021/12/03 17:09:11;;;;;;;6.78;3.67;;;1.20;99.90;;;;;;5052158;28;20075;-89
2021/12/03 17:14:34;;;;;;;4.47;3.53;;;1.20;99.90;;;;;;5051828;28;20064;-89
2021/12/03 17:23:12;;;;;;;9.15;4.22;;;1.30;99.90;;;;;;5055808;28;20053;-89
2021/12/03 17:57:54;;;;;;;;;;;1.50;99.90;;;;;;5055708;28;20045;-90
2021/12/03 18:00:39;;;;;;;6.53;3.65;;;1.50;99.90;;;;;;5055823;28;20277;-89
2021/12/03 18:03:15;;;;;;;5.95;4.10;;;1.60;99.90;;;;;;5038328;28;20048;-90
2021/12/03 18:08:40;;;;;;;6.43;4.07;;;1.60;99.90;;;;;;5055560;28;20479;-89
2021/12/03 18:44:28;;;;;;;5.32;3.65;;;1.50;99.90;;;;;;5054919;28;20063;-88
2021/12/03 18:47:31;;;;;;;6.55;3.60;;;1.50;99.90;;;;;;5037328;28;20145;-89
2021/12/03 18:50:25;;;;;;;4.25;3.75;;;1.60;99.90;;;;;;5054720;28;20139;-88
2021/12/03 18:57:48;;;;;;;8.30;3.88;;;1.70;99.90;;;;;;5056251;28;20048;-89
2021/12/03 19:00:16;;;;;;;4.20;3.67;;;1.70;99.90;;;;;;5037692;28;20053;-89
2021/12/03 19:02:48;;;;;;;5.70;3.97;;;1.70;99.90;;;;;;5036601;28;20551;-89
2021/12/03 19:05:27;;;;;;;8.38;4.40;;;1.60;99.90;;;;;;5053878;28;20111;-89
2021/12/03 19:10:29;;;;;;;7.20;4.38;;;1.60;99.90;;;;;;5054014;28;20555;-89
2021/12/03 19:13:00;;;;;;;6.70;4.20;;;1.60;99.90;;;;;;5036423;28;20102;-88
2021/12/03 19:15:27;;;;;;;8.68;4.75;;;1.60;99.90;;;;;;5036398;28;20045;-89
2021/12/03 19:17:57;;;;;;;6.43;4.00;;;1.60;99.90;;;;;;5036174;28;20493;-87
2021/12/03 19:20:44;;;;;;;4.80;4.40;;;1.70;99.90;;;;;;5039368;28;20049;-88
2021/12/03 19:23:10;;;;;;;6.68;4.55;;;1.70;99.90;;;;;;5036756;28;20512;-89
2021/12/03 19:25:37;;;;;;;7.10;4.28;;;1.70;99.90;;;;;;5036270;28;20132;-89
2021/12/03 19:28:04;;;;;;;5.13;4.63;;;1.60;99.90;;;;;;5036222;28;20132;-91
2021/12/03 19:30:31;;;;;;;6.65;4.78;;;1.60;99.90;;;;;;5035804;28;20063;-89
2021/12/03 19:32:58;;;;;;;5.85;4.40;;;1.60;99.90;;;;;;5053118;28;20051;-88
2021/12/03 19:35:25;;;;;;;5.38;4.22;;;1.60;99.90;;;;;;5036072;28;20055;-90
2021/12/03 19:37:54;;;;;;;4.90;3.92;;;1.60;99.90;;;;;;5035428;28;20405;-88
2021/12/03 19:40:22;;;;;;;6.90;4.38;;;1.60;99.90;;;;;;5035798;28;20057;-89
2021/12/03 19:42:58;;;;;;;4.43;4.07;;;1.60;99.90;;;;;;5035430;28;20049;-88